Hauptseite
METAR-TAF:

METAR-TAF

Flughäfen :

Mfuwe, Sambia

Breite: 13-15-32S, Länge: 031-56-12E, Höhe: 573 m

METAR: fehlend

Zeit: 04:32 (02:32 UTC)

Prognose

Neuester Wetterbericht von vor 16 Stunden und 32 Minuten, um 10:00 UTC
Gültige Prognose vom 08 um 12 UTC bis 09 um 18 UTC
Wind 10 kt aus Südost
Sichtweite 10 km oder mehr
Leicht bewölkt in der Höhe von 4500 ft, Kumulonimbus.
Wahrscheinlichkeit 30% :
Zeitweise
vom 08 um 18 UTC bis 08 um 21 UTC
Wind 5 kt aus Ost/Nordost
Sichtweite: 9000 m
Gewitter, Leichtregen
Übergehend zu
vom 08 um 21 UTC bis 08 um 23 UTC
Wind 2 kt aus unterschiedlichen Richtungen
Sichtweite 10 km oder mehr
Übergehend zu
vom 09 um 06 UTC bis 09 um 08 UTC
Wind 12 kt aus Ost
Durchbrochene Bewölkung in der Höhe von 1000 ft

TAF: FLMF 081000Z 0812/0918 13010KT 9999 FEW045CB PROB30 TEMPO 0818/0821 06005KT 9000 -TSRA BECMG 0821/0823 VRB02KT 9999 NSW BECMG 0906/0908 09012KT BKN010

Wetterbeobachtungen und Prognosen von mehr als 4000 Flughäfen (METAR und TAF Bericht).

Die verfügbaren Stationen werden durch gelbe und rote Markierungen auf der Karte dargestellt.

Führen Sie die Maus auf sie, um den Namen der Station zu sehen.

Darauf klicken, um die Beobachtung von Wetterbeobachtungen und Prognosen zu sehen.

Um die Karte zu ändern : klicken Sie auf den grünen Tasten mit einem schwarzen Kreuz Zum Vergrößern, auf den grünen Button mit einem Gedankenstrich zu verkleinern, oder auf die grünen Pfeile für benachbarte Karten.


METAR-TAF: